sensor_id;sensor_type;location;lat;lon;timestamp;P1;durP1;ratioP1;P2;durP2;ratioP2
49824;SDS011;35714;55.708;37.478;2024-03-23T00:55:40;31.17;;;16.33;;
49824;SDS011;35714;55.708;37.478;2024-03-23T00:58:07;29.45;;;16.45;;
49824;SDS011;35714;55.708;37.478;2024-03-23T01:00:33;27.55;;;16.13;;
49824;SDS011;35714;55.708;37.478;2024-03-23T01:02:59;30.77;;;16.13;;
49824;SDS011;35714;55.708;37.478;2024-03-23T01:05:24;30.60;;;17.52;;
49824;SDS011;35714;55.708;37.478;2024-03-23T01:07:50;29.73;;;16.38;;
49824;SDS011;35714;55.708;37.478;2024-03-23T01:10:16;34.40;;;17.58;;
49824;SDS011;35714;55.708;37.478;2024-03-23T01:12:43;30.75;;;17.15;;
49824;SDS011;35714;55.708;37.478;2024-03-23T01:15:09;31.85;;;17.33;;
49824;SDS011;35714;55.708;37.478;2024-03-23T01:17:34;30.60;;;15.93;;
49824;SDS011;35714;55.708;37.478;2024-03-23T01:20:00;31.13;;;17.08;;
49824;SDS011;35714;55.708;37.478;2024-03-23T01:22:29;26.95;;;15.88;;
49824;SDS011;35714;55.708;37.478;2024-03-23T01:24:55;26.65;;;15.02;;
49824;SDS011;35714;55.708;37.478;2024-03-23T01:27:21;28.65;;;16.15;;
49824;SDS011;35714;55.708;37.478;2024-03-23T01:29:47;32.55;;;16.88;;
49824;SDS011;35714;55.708;37.478;2024-03-23T01:32:12;31.73;;;16.98;;
49824;SDS011;35714;55.708;37.478;2024-03-23T01:34:38;28.27;;;15.18;;
49824;SDS011;35714;55.708;37.478;2024-03-23T01:37:04;29.88;;;16.55;;
49824;SDS011;35714;55.708;37.478;2024-03-23T01:39:30;29.75;;;16.42;;
49824;SDS011;35714;55.708;37.478;2024-03-23T01:41:55;31.25;;;17.85;;
49824;SDS011;35714;55.708;37.478;2024-03-23T01:44:21;32.50;;;16.77;;
49824;SDS011;35714;55.708;37.478;2024-03-23T01:46:47;28.42;;;16.05;;
49824;SDS011;35714;55.708;37.478;2024-03-23T01:49:12;34.08;;;16.88;;
49824;SDS011;35714;55.708;37.478;2024-03-23T01:51:38;37.65;;;19.05;;
49824;SDS011;35714;55.708;37.478;2024-03-23T01:54:05;32.63;;;18.17;;
49824;SDS011;35714;55.708;37.478;2024-03-23T01:56:35;33.70;;;17.27;;
49824;SDS011;35714;55.708;37.478;2024-03-23T01:59:01;34.53;;;17.45;;
49824;SDS011;35714;55.708;37.478;2024-03-23T02:01:27;31.90;;;17.23;;
49824;SDS011;35714;55.708;37.478;2024-03-23T02:03:53;34.22;;;18.75;;
49824;SDS011;35714;55.708;37.478;2024-03-23T02:06:19;33.85;;;17.73;;
49824;SDS011;35714;55.708;37.478;2024-03-23T02:08:44;29.17;;;17.13;;
49824;SDS011;35714;55.708;37.478;2024-03-23T02:11:10;31.08;;;17.73;;
49824;SDS011;35714;55.708;37.478;2024-03-23T02:13:36;32.10;;;17.63;;
49824;SDS011;35714;55.708;37.478;2024-03-23T02:16:02;37.30;;;17.73;;
49824;SDS011;35714;55.708;37.478;2024-03-23T02:18:28;32.22;;;16.92;;
49824;SDS011;35714;55.708;37.478;2024-03-23T02:20:53;34.95;;;17.50;;
49824;SDS011;35714;55.708;37.478;2024-03-23T02:23:19;31.25;;;17.13;;
49824;SDS011;35714;55.708;37.478;2024-03-23T02:25:45;35.28;;;17.77;;
49824;SDS011;35714;55.708;37.478;2024-03-23T02:28:11;32.50;;;17.02;;
49824;SDS011;35714;55.708;37.478;2024-03-23T02:30:37;36.53;;;18.45;;
49824;SDS011;35714;55.708;37.478;2024-03-23T02:33:03;30.48;;;17.02;;
49824;SDS011;35714;55.708;37.478;2024-03-23T02:35:30;27.55;;;15.07;;
49824;SDS011;35714;55.708;37.478;2024-03-23T02:37:55;36.80;;;17.90;;
49824;SDS011;35714;55.708;37.478;2024-03-23T02:40:25;32.05;;;18.17;;
49824;SDS011;35714;55.708;37.478;2024-03-23T02:42:51;32.22;;;17.13;;
49824;SDS011;35714;55.708;37.478;2024-03-23T02:45:17;31.77;;;17.15;;
49824;SDS011;35714;55.708;37.478;2024-03-23T02:47:43;32.10;;;16.88;;
49824;SDS011;35714;55.708;37.478;2024-03-23T02:50:09;35.10;;;17.80;;
49824;SDS011;35714;55.708;37.478;2024-03-23T02:52:36;32.72;;;17.13;;
49824;SDS011;35714;55.708;37.478;2024-03-23T02:55:02;32.47;;;16.48;;
49824;SDS011;35714;55.708;37.478;2024-03-23T02:57:30;31.95;;;16.65;;
49824;SDS011;35714;55.708;37.478;2024-03-23T02:59:56;31.17;;;16.67;;
49824;SDS011;35714;55.708;37.478;2024-03-23T03:02:22;34.85;;;17.92;;
49824;SDS011;35714;55.708;37.478;2024-03-23T03:04:47;32.80;;;18.15;;
49824;SDS011;35714;55.708;37.478;2024-03-23T03:07:14;29.98;;;17.23;;
49824;SDS011;35714;55.708;37.478;2024-03-23T03:09:40;28.98;;;17.25;;
49824;SDS011;35714;55.708;37.478;2024-03-23T03:12:06;27.83;;;15.98;;
49824;SDS011;35714;55.708;37.478;2024-03-23T03:14:32;31.33;;;17.38;;
49824;SDS011;35714;55.708;37.478;2024-03-23T03:16:58;27.75;;;15.45;;
49824;SDS011;35714;55.708;37.478;2024-03-23T03:19:23;31.70;;;16.33;;
49824;SDS011;35714;55.708;37.478;2024-03-23T03:21:49;28.20;;;15.82;;
49824;SDS011;35714;55.708;37.478;2024-03-23T03:24:15;30.33;;;16.58;;
49824;SDS011;35714;55.708;37.478;2024-03-23T03:26:42;28.48;;;15.43;;
49824;SDS011;35714;55.708;37.478;2024-03-23T03:29:08;29.13;;;16.88;;
49824;SDS011;35714;55.708;37.478;2024-03-23T03:31:34;26.45;;;15.35;;
49824;SDS011;35714;55.708;37.478;2024-03-23T03:34:00;28.58;;;14.90;;
49824;SDS011;35714;55.708;37.478;2024-03-23T03:36:26;32.47;;;18.15;;
49824;SDS011;35714;55.708;37.478;2024-03-23T03:38:52;29.10;;;16.30;;
49824;SDS011;35714;55.708;37.478;2024-03-23T03:41:18;32.72;;;16.38;;
49824;SDS011;35714;55.708;37.478;2024-03-23T03:43:44;32.92;;;16.77;;
49824;SDS011;35714;55.708;37.478;2024-03-23T03:46:10;30.98;;;17.13;;
49824;SDS011;35714;55.708;37.478;2024-03-23T03:48:36;31.52;;;15.93;;
49824;SDS011;35714;55.708;37.478;2024-03-23T03:51:02;28.40;;;15.82;;
49824;SDS011;35714;55.708;37.478;2024-03-23T03:53:29;30.98;;;16.45;;
49824;SDS011;35714;55.708;37.478;2024-03-23T03:55:55;31.00;;;16.45;;
49824;SDS011;35714;55.708;37.478;2024-03-23T03:58:21;28.33;;;14.85;;
49824;SDS011;35714;55.708;37.478;2024-03-23T04:00:47;30.55;;;16.73;;
49824;SDS011;35714;55.708;37.478;2024-03-23T04:03:13;28.58;;;16.27;;
49824;SDS011;35714;55.708;37.478;2024-03-23T04:05:39;30.60;;;15.15;;
49824;SDS011;35714;55.708;37.478;2024-03-23T04:08:05;28.90;;;15.98;;
49824;SDS011;35714;55.708;37.478;2024-03-23T04:10:32;26.33;;;15.02;;
49824;SDS011;35714;55.708;37.478;2024-03-23T04:12:58;29.77;;;16.80;;
49824;SDS011;35714;55.708;37.478;2024-03-23T04:15:23;27.60;;;15.85;;
49824;SDS011;35714;55.708;37.478;2024-03-23T04:17:49;27.33;;;15.20;;
49824;SDS011;35714;55.708;37.478;2024-03-23T04:20:15;32.40;;;18.30;;
49824;SDS011;35714;55.708;37.478;2024-03-23T04:22:42;27.88;;;14.82;;
49824;SDS011;35714;55.708;37.478;2024-03-23T04:25:08;29.42;;;15.85;;
49824;SDS011;35714;55.708;37.478;2024-03-23T04:27:36;26.83;;;14.65;;
49824;SDS011;35714;55.708;37.478;2024-03-23T04:30:03;27.17;;;15.18;;
49824;SDS011;35714;55.708;37.478;2024-03-23T04:32:35;26.05;;;14.43;;
49824;SDS011;35714;55.708;37.478;2024-03-23T04:35:00;25.23;;;13.23;;
49824;SDS011;35714;55.708;37.478;2024-03-23T04:37:26;27.42;;;14.50;;
49824;SDS011;35714;55.708;37.478;2024-03-23T04:39:52;24.48;;;14.98;;
49824;SDS011;35714;55.708;37.478;2024-03-23T04:42:18;29.90;;;13.93;;
49824;SDS011;35714;55.708;37.478;2024-03-23T04:44:43;28.10;;;15.45;;
49824;SDS011;35714;55.708;37.478;2024-03-23T04:47:10;23.25;;;13.27;;
49824;SDS011;35714;55.708;37.478;2024-03-23T04:49:38;23.45;;;14.57;;
49824;SDS011;35714;55.708;37.478;2024-03-23T04:52:04;25.73;;;14.82;;
49824;SDS011;35714;55.708;37.478;2024-03-23T04:54:30;27.15;;;15.27;;
49824;SDS011;35714;55.708;37.478;2024-03-23T04:56:58;20.60;;;12.75;;
49824;SDS011;35714;55.708;37.478;2024-03-23T04:59:23;24.23;;;14.43;;
49824;SDS011;35714;55.708;37.478;2024-03-23T05:01:49;24.08;;;13.80;;
49824;SDS011;35714;55.708;37.478;2024-03-23T05:04:15;22.58;;;13.88;;
49824;SDS011;35714;55.708;37.478;2024-03-23T05:06:41;23.02;;;12.45;;
49824;SDS011;35714;55.708;37.478;2024-03-23T05:09:06;25.80;;;14.23;;
49824;SDS011;35714;55.708;37.478;2024-03-23T05:11:33;22.83;;;12.52;;
49824;SDS011;35714;55.708;37.478;2024-03-23T05:13:59;24.77;;;14.38;;
49824;SDS011;35714;55.708;37.478;2024-03-23T05:16:26;24.60;;;12.50;;
49824;SDS011;35714;55.708;37.478;2024-03-23T05:18:52;20.13;;;11.55;;
49824;SDS011;35714;55.708;37.478;2024-03-23T05:21:18;21.30;;;13.25;;
49824;SDS011;35714;55.708;37.478;2024-03-23T05:23:43;25.55;;;13.40;;
49824;SDS011;35714;55.708;37.478;2024-03-23T05:26:09;22.23;;;13.02;;
49824;SDS011;35714;55.708;37.478;2024-03-23T05:28:35;19.38;;;11.80;;
49824;SDS011;35714;55.708;37.478;2024-03-23T05:31:01;22.50;;;12.20;;
49824;SDS011;35714;55.708;37.478;2024-03-23T05:33:26;21.30;;;12.27;;
49824;SDS011;35714;55.708;37.478;2024-03-23T05:35:59;25.35;;;12.55;;
49824;SDS011;35714;55.708;37.478;2024-03-23T05:38:25;22.73;;;12.20;;
49824;SDS011;35714;55.708;37.478;2024-03-23T05:40:58;22.80;;;13.23;;
49824;SDS011;35714;55.708;37.478;2024-03-23T05:43:25;21.08;;;11.88;;
49824;SDS011;35714;55.708;37.478;2024-03-23T05:45:58;20.00;;;11.63;;
49824;SDS011;35714;55.708;37.478;2024-03-23T05:48:25;24.27;;;12.35;;
49824;SDS011;35714;55.708;37.478;2024-03-23T05:50:52;20.08;;;12.57;;
49824;SDS011;35714;55.708;37.478;2024-03-23T05:53:18;21.85;;;12.18;;
49824;SDS011;35714;55.708;37.478;2024-03-23T05:55:48;43.13;;;15.32;;
49824;SDS011;35714;55.708;37.478;2024-03-23T05:58:17;20.27;;;11.63;;
49824;SDS011;35714;55.708;37.478;2024-03-23T06:00:44;20.50;;;13.02;;
49824;SDS011;35714;55.708;37.478;2024-03-23T06:03:10;20.85;;;12.48;;
49824;SDS011;35714;55.708;37.478;2024-03-23T06:05:36;25.42;;;12.82;;
49824;SDS011;35714;55.708;37.478;2024-03-23T06:08:03;25.48;;;13.38;;
49824;SDS011;35714;55.708;37.478;2024-03-23T06:10:29;20.55;;;12.75;;
49824;SDS011;35714;55.708;37.478;2024-03-23T06:12:55;25.85;;;12.18;;
49824;SDS011;35714;55.708;37.478;2024-03-23T06:15:21;21.95;;;11.95;;
49824;SDS011;35714;55.708;37.478;2024-03-23T06:17:47;20.05;;;11.95;;
49824;SDS011;35714;55.708;37.478;2024-03-23T06:20:14;21.38;;;13.05;;
49824;SDS011;35714;55.708;37.478;2024-03-23T06:22:40;17.65;;;10.25;;
49824;SDS011;35714;55.708;37.478;2024-03-23T06:25:06;19.42;;;11.77;;
49824;SDS011;35714;55.708;37.478;2024-03-23T06:27:32;18.35;;;10.88;;
49824;SDS011;35714;55.708;37.478;2024-03-23T06:30:01;20.17;;;10.98;;
49824;SDS011;35714;55.708;37.478;2024-03-23T06:32:29;19.20;;;11.30;;
49824;SDS011;35714;55.708;37.478;2024-03-23T06:34:55;17.63;;;10.35;;
49824;SDS011;35714;55.708;37.478;2024-03-23T06:37:21;17.55;;;10.95;;
49824;SDS011;35714;55.708;37.478;2024-03-23T06:39:47;20.77;;;12.07;;
49824;SDS011;35714;55.708;37.478;2024-03-23T06:42:12;19.50;;;10.70;;
49824;SDS011;35714;55.708;37.478;2024-03-23T06:44:38;20.42;;;11.75;;
49824;SDS011;35714;55.708;37.478;2024-03-23T06:47:05;16.50;;;10.40;;
49824;SDS011;35714;55.708;37.478;2024-03-23T06:49:31;20.13;;;11.15;;
49824;SDS011;35714;55.708;37.478;2024-03-23T06:51:56;20.83;;;11.00;;
49824;SDS011;35714;55.708;37.478;2024-03-23T06:54:23;16.85;;;10.50;;
49824;SDS011;35714;55.708;37.478;2024-03-23T06:56:50;21.20;;;12.35;;
49824;SDS011;35714;55.708;37.478;2024-03-23T06:59:15;19.63;;;11.38;;
49824;SDS011;35714;55.708;37.478;2024-03-23T07:01:41;18.85;;;11.20;;
49824;SDS011;35714;55.708;37.478;2024-03-23T07:04:07;18.05;;;11.20;;
49824;SDS011;35714;55.708;37.478;2024-03-23T07:06:33;18.67;;;10.85;;
49824;SDS011;35714;55.708;37.478;2024-03-23T07:08:59;20.45;;;11.55;;
49824;SDS011;35714;55.708;37.478;2024-03-23T07:11:25;18.02;;;11.30;;
49824;SDS011;35714;55.708;37.478;2024-03-23T07:13:51;19.23;;;10.93;;
49824;SDS011;35714;55.708;37.478;2024-03-23T07:16:19;18.88;;;10.48;;
49824;SDS011;35714;55.708;37.478;2024-03-23T07:18:45;14.73;;;9.98;;
49824;SDS011;35714;55.708;37.478;2024-03-23T07:21:11;15.25;;;9.85;;
49824;SDS011;35714;55.708;37.478;2024-03-23T07:23:37;17.30;;;11.07;;
49824;SDS011;35714;55.708;37.478;2024-03-23T07:26:04;16.52;;;10.05;;
49824;SDS011;35714;55.708;37.478;2024-03-23T07:28:31;19.92;;;10.98;;
49824;SDS011;35714;55.708;37.478;2024-03-23T07:33:27;17.23;;;10.50;;
49824;SDS011;35714;55.708;37.478;2024-03-23T07:35:53;15.85;;;9.82;;
49824;SDS011;35714;55.708;37.478;2024-03-23T07:38:19;17.48;;;10.90;;
49824;SDS011;35714;55.708;37.478;2024-03-23T07:40:45;19.25;;;10.38;;
49824;SDS011;35714;55.708;37.478;2024-03-23T07:43:10;15.07;;;9.13;;
49824;SDS011;35714;55.708;37.478;2024-03-23T07:45:36;16.02;;;9.85;;
49824;SDS011;35714;55.708;37.478;2024-03-23T07:48:03;17.23;;;9.63;;
49824;SDS011;35714;55.708;37.478;2024-03-23T07:50:29;15.02;;;9.52;;
49824;SDS011;35714;55.708;37.478;2024-03-23T07:52:55;14.75;;;9.32;;
49824;SDS011;35714;55.708;37.478;2024-03-23T07:55:21;16.48;;;9.65;;
49824;SDS011;35714;55.708;37.478;2024-03-23T07:57:47;13.60;;;8.88;;
49824;SDS011;35714;55.708;37.478;2024-03-23T08:00:13;15.10;;;9.40;;
49824;SDS011;35714;55.708;37.478;2024-03-23T08:02:39;17.08;;;9.82;;
49824;SDS011;35714;55.708;37.478;2024-03-23T08:05:04;13.38;;;8.93;;
49824;SDS011;35714;55.708;37.478;2024-03-23T08:07:31;15.60;;;9.63;;
49824;SDS011;35714;55.708;37.478;2024-03-23T08:09:56;18.10;;;9.88;;
49824;SDS011;35714;55.708;37.478;2024-03-23T08:12:24;15.13;;;9.27;;
49824;SDS011;35714;55.708;37.478;2024-03-23T08:14:50;14.18;;;9.45;;
49824;SDS011;35714;55.708;37.478;2024-03-23T08:17:16;16.15;;;9.13;;
49824;SDS011;35714;55.708;37.478;2024-03-23T08:19:41;15.77;;;9.57;;
49824;SDS011;35714;55.708;37.478;2024-03-23T08:22:07;14.15;;;8.95;;
49824;SDS011;35714;55.708;37.478;2024-03-23T08:24:34;14.60;;;9.10;;
49824;SDS011;35714;55.708;37.478;2024-03-23T08:27:00;13.60;;;8.75;;
49824;SDS011;35714;55.708;37.478;2024-03-23T08:29:26;14.18;;;7.78;;
49824;SDS011;35714;55.708;37.478;2024-03-23T08:31:51;17.13;;;9.15;;
49824;SDS011;35714;55.708;37.478;2024-03-23T08:34:17;14.60;;;8.38;;
49824;SDS011;35714;55.708;37.478;2024-03-23T08:36:43;16.33;;;8.35;;
49824;SDS011;35714;55.708;37.478;2024-03-23T08:39:09;13.63;;;6.80;;
49824;SDS011;35714;55.708;37.478;2024-03-23T08:41:35;13.77;;;8.15;;
49824;SDS011;35714;55.708;37.478;2024-03-23T08:44:00;12.50;;;7.25;;
49824;SDS011;35714;55.708;37.478;2024-03-23T08:46:26;14.15;;;7.65;;
49824;SDS011;35714;55.708;37.478;2024-03-23T08:48:52;10.23;;;7.10;;
49824;SDS011;35714;55.708;37.478;2024-03-23T08:51:18;12.35;;;8.13;;
49824;SDS011;35714;55.708;37.478;2024-03-23T08:53:45;18.90;;;6.60;;
49824;SDS011;35714;55.708;37.478;2024-03-23T08:56:11;11.82;;;7.45;;
49824;SDS011;35714;55.708;37.478;2024-03-23T08:58:37;12.48;;;7.80;;
49824;SDS011;35714;55.708;37.478;2024-03-23T09:01:12;12.90;;;8.82;;
49824;SDS011;35714;55.708;37.478;2024-03-23T09:03:39;10.75;;;7.15;;
49824;SDS011;35714;55.708;37.478;2024-03-23T09:08:37;13.38;;;8.20;;
49824;SDS011;35714;55.708;37.478;2024-03-23T09:11:05;9.45;;;5.32;;
49824;SDS011;35714;55.708;37.478;2024-03-23T09:13:33;12.23;;;6.93;;
49824;SDS011;35714;55.708;37.478;2024-03-23T09:15:59;13.27;;;8.00;;
49824;SDS011;35714;55.708;37.478;2024-03-23T09:18:25;15.98;;;8.15;;
49824;SDS011;35714;55.708;37.478;2024-03-23T09:20:51;11.63;;;8.00;;
49824;SDS011;35714;55.708;37.478;2024-03-23T09:23:18;14.20;;;7.05;;
49824;SDS011;35714;55.708;37.478;2024-03-23T09:25:44;13.68;;;7.05;;
49824;SDS011;35714;55.708;37.478;2024-03-23T09:28:10;12.63;;;7.95;;
49824;SDS011;35714;55.708;37.478;2024-03-23T09:30:36;11.32;;;7.85;;
49824;SDS011;35714;55.708;37.478;2024-03-23T09:33:08;12.32;;;7.90;;
49824;SDS011;35714;55.708;37.478;2024-03-23T09:35:38;11.18;;;7.35;;
49824;SDS011;35714;55.708;37.478;2024-03-23T09:38:08;11.65;;;6.97;;
49824;SDS011;35714;55.708;37.478;2024-03-23T09:40:43;13.65;;;8.07;;
49824;SDS011;35714;55.708;37.478;2024-03-23T09:43:09;12.35;;;8.02;;
49824;SDS011;35714;55.708;37.478;2024-03-23T09:45:38;13.52;;;8.23;;
49824;SDS011;35714;55.708;37.478;2024-03-23T09:48:06;13.90;;;8.43;;
49824;SDS011;35714;55.708;37.478;2024-03-23T09:50:33;11.50;;;7.55;;
49824;SDS011;35714;55.708;37.478;2024-03-23T09:52:59;10.35;;;6.72;;
49824;SDS011;35714;55.708;37.478;2024-03-23T09:55:26;12.45;;;8.23;;
49824;SDS011;35714;55.708;37.478;2024-03-23T09:57:52;10.43;;;7.10;;
49824;SDS011;35714;55.708;37.478;2024-03-23T10:00:17;14.90;;;7.70;;
49824;SDS011;35714;55.708;37.478;2024-03-23T10:02:43;12.48;;;7.88;;
49824;SDS011;35714;55.708;37.478;2024-03-23T10:05:20;12.93;;;7.28;;
49824;SDS011;35714;55.708;37.478;2024-03-23T10:07:52;16.13;;;8.30;;
49824;SDS011;35714;55.708;37.478;2024-03-23T10:10:18;13.13;;;7.18;;
49824;SDS011;35714;55.708;37.478;2024-03-23T10:12:45;11.25;;;7.35;;
49824;SDS011;35714;55.708;37.478;2024-03-23T10:15:19;14.30;;;8.38;;
49824;SDS011;35714;55.708;37.478;2024-03-23T10:17:45;11.75;;;7.25;;
49824;SDS011;35714;55.708;37.478;2024-03-23T10:20:12;11.00;;;7.07;;
49824;SDS011;35714;55.708;37.478;2024-03-23T10:22:38;11.50;;;6.75;;
49824;SDS011;35714;55.708;37.478;2024-03-23T10:25:08;11.32;;;7.63;;
49824;SDS011;35714;55.708;37.478;2024-03-23T10:27:35;12.45;;;7.72;;
49824;SDS011;35714;55.708;37.478;2024-03-23T10:30:07;11.30;;;6.72;;
49824;SDS011;35714;55.708;37.478;2024-03-23T10:32:35;14.52;;;8.35;;
49824;SDS011;35714;55.708;37.478;2024-03-23T10:35:16;13.23;;;7.93;;
49824;SDS011;35714;55.708;37.478;2024-03-23T10:37:49;10.25;;;7.05;;
49824;SDS011;35714;55.708;37.478;2024-03-23T10:40:17;13.75;;;8.18;;
49824;SDS011;35714;55.708;37.478;2024-03-23T10:42:46;11.18;;;7.45;;
49824;SDS011;35714;55.708;37.478;2024-03-23T10:45:12;15.40;;;7.80;;
49824;SDS011;35714;55.708;37.478;2024-03-23T10:47:37;14.40;;;7.78;;
49824;SDS011;35714;55.708;37.478;2024-03-23T10:50:03;12.13;;;7.10;;
49824;SDS011;35714;55.708;37.478;2024-03-23T10:52:33;12.95;;;7.47;;
49824;SDS011;35714;55.708;37.478;2024-03-23T10:55:00;12.63;;;8.40;;
49824;SDS011;35714;55.708;37.478;2024-03-23T10:57:33;14.55;;;8.38;;
49824;SDS011;35714;55.708;37.478;2024-03-23T11:00:04;12.05;;;6.47;;
49824;SDS011;35714;55.708;37.478;2024-03-23T11:02:31;14.30;;;7.88;;
49824;SDS011;35714;55.708;37.478;2024-03-23T11:04:56;11.88;;;7.63;;
49824;SDS011;35714;55.708;37.478;2024-03-23T11:09:55;10.63;;;7.05;;
49824;SDS011;35714;55.708;37.478;2024-03-23T11:14:49;12.27;;;5.63;;
49824;SDS011;35714;55.708;37.478;2024-03-23T11:17:22;11.80;;;7.93;;
49824;SDS011;35714;55.708;37.478;2024-03-23T11:20:01;12.80;;;8.40;;
49824;SDS011;35714;55.708;37.478;2024-03-23T11:27:56;14.88;;;8.93;;
49824;SDS011;35714;55.708;37.478;2024-03-23T11:30:26;12.30;;;7.32;;
49824;SDS011;35714;55.708;37.478;2024-03-23T11:32:56;12.07;;;7.65;;
49824;SDS011;35714;55.708;37.478;2024-03-23T11:40:29;16.33;;;9.85;;
49824;SDS011;35714;55.708;37.478;2024-03-23T11:43:00;16.27;;;9.48;;
49824;SDS011;35714;55.708;37.478;2024-03-23T11:45:27;12.90;;;8.18;;
49824;SDS011;35714;55.708;37.478;2024-03-23T11:50:38;15.85;;;9.25;;
49824;SDS011;35714;55.708;37.478;2024-03-23T11:53:14;13.45;;;8.15;;
49824;SDS011;35714;55.708;37.478;2024-03-23T11:55:53;16.45;;;10.07;;
49824;SDS011;35714;55.708;37.478;2024-03-23T11:58:24;14.30;;;8.75;;
49824;SDS011;35714;55.708;37.478;2024-03-23T12:00:57;13.65;;;9.07;;
49824;SDS011;35714;55.708;37.478;2024-03-23T12:03:30;16.88;;;10.25;;
49824;SDS011;35714;55.708;37.478;2024-03-23T12:05:58;15.30;;;9.65;;
49824;SDS011;35714;55.708;37.478;2024-03-23T12:13:30;18.00;;;9.65;;
49824;SDS011;35714;55.708;37.478;2024-03-23T12:16:11;16.58;;;10.32;;
49824;SDS011;35714;55.708;37.478;2024-03-23T12:18:43;23.10;;;11.40;;
49824;SDS011;35714;55.708;37.478;2024-03-23T12:21:10;18.60;;;11.82;;
49824;SDS011;35714;55.708;37.478;2024-03-23T12:23:38;15.75;;;10.77;;
49824;SDS011;35714;55.708;37.478;2024-03-23T12:26:05;16.05;;;10.38;;
49824;SDS011;35714;55.708;37.478;2024-03-23T12:28:31;17.02;;;10.38;;
49824;SDS011;35714;55.708;37.478;2024-03-23T12:30:57;16.50;;;10.35;;
49824;SDS011;35714;55.708;37.478;2024-03-23T12:33:23;19.25;;;11.00;;
49824;SDS011;35714;55.708;37.478;2024-03-23T12:35:49;18.27;;;11.15;;
49824;SDS011;35714;55.708;37.478;2024-03-23T12:38:16;19.25;;;10.85;;
49824;SDS011;35714;55.708;37.478;2024-03-23T12:40:49;19.63;;;12.20;;
49824;SDS011;35714;55.708;37.478;2024-03-23T12:43:16;18.02;;;10.90;;
49824;SDS011;35714;55.708;37.478;2024-03-23T12:45:46;19.65;;;10.90;;
49824;SDS011;35714;55.708;37.478;2024-03-23T12:48:12;18.48;;;10.52;;
49824;SDS011;35714;55.708;37.478;2024-03-23T12:50:38;20.40;;;11.77;;
49824;SDS011;35714;55.708;37.478;2024-03-23T12:53:04;19.75;;;10.55;;
49824;SDS011;35714;55.708;37.478;2024-03-23T12:55:29;18.35;;;10.85;;
49824;SDS011;35714;55.708;37.478;2024-03-23T12:57:55;16.00;;;10.35;;
49824;SDS011;35714;55.708;37.478;2024-03-23T13:00:21;18.17;;;11.27;;
49824;SDS011;35714;55.708;37.478;2024-03-23T13:02:47;18.60;;;10.88;;
49824;SDS011;35714;55.708;37.478;2024-03-23T13:05:13;17.88;;;11.30;;
49824;SDS011;35714;55.708;37.478;2024-03-23T13:07:39;18.55;;;10.73;;
49824;SDS011;35714;55.708;37.478;2024-03-23T13:10:05;19.23;;;11.35;;
49824;SDS011;35714;55.708;37.478;2024-03-23T13:12:31;18.00;;;12.30;;
49824;SDS011;35714;55.708;37.478;2024-03-23T13:14:59;18.30;;;10.60;;
49824;SDS011;35714;55.708;37.478;2024-03-23T13:17:26;19.52;;;11.50;;
49824;SDS011;35714;55.708;37.478;2024-03-23T13:19:55;16.58;;;10.48;;
49824;SDS011;35714;55.708;37.478;2024-03-23T13:22:23;17.88;;;10.95;;
49824;SDS011;35714;55.708;37.478;2024-03-23T13:24:49;17.90;;;10.52;;
49824;SDS011;35714;55.708;37.478;2024-03-23T13:27:15;16.60;;;10.80;;
49824;SDS011;35714;55.708;37.478;2024-03-23T13:29:41;16.10;;;9.52;;
49824;SDS011;35714;55.708;37.478;2024-03-23T13:32:07;17.48;;;9.23;;
49824;SDS011;35714;55.708;37.478;2024-03-23T13:34:33;23.25;;;11.27;;
49824;SDS011;35714;55.708;37.478;2024-03-23T13:37:00;16.60;;;10.38;;
49824;SDS011;35714;55.708;37.478;2024-03-23T13:39:27;15.80;;;10.05;;
49824;SDS011;35714;55.708;37.478;2024-03-23T13:41:53;16.05;;;9.18;;
49824;SDS011;35714;55.708;37.478;2024-03-23T13:44:22;13.95;;;8.27;;
49824;SDS011;35714;55.708;37.478;2024-03-23T13:46:48;17.08;;;9.48;;
49824;SDS011;35714;55.708;37.478;2024-03-23T13:49:27;14.77;;;8.82;;
49824;SDS011;35714;55.708;37.478;2024-03-23T13:51:54;17.67;;;10.85;;
49824;SDS011;35714;55.708;37.478;2024-03-23T13:54:21;14.18;;;8.70;;
49824;SDS011;35714;55.708;37.478;2024-03-23T13:56:50;13.10;;;8.80;;
49824;SDS011;35714;55.708;37.478;2024-03-23T13:59:16;13.02;;;8.30;;
49824;SDS011;35714;55.708;37.478;2024-03-23T14:01:42;14.93;;;9.27;;
49824;SDS011;35714;55.708;37.478;2024-03-23T14:04:10;11.25;;;7.38;;
49824;SDS011;35714;55.708;37.478;2024-03-23T14:06:36;12.90;;;7.85;;
49824;SDS011;35714;55.708;37.478;2024-03-23T14:09:02;13.82;;;8.77;;
49824;SDS011;35714;55.708;37.478;2024-03-23T14:11:29;14.63;;;9.23;;
49824;SDS011;35714;55.708;37.478;2024-03-23T14:13:55;11.27;;;7.55;;
49824;SDS011;35714;55.708;37.478;2024-03-23T14:16:21;11.43;;;7.20;;
49824;SDS011;35714;55.708;37.478;2024-03-23T14:18:47;14.20;;;7.95;;
49824;SDS011;35714;55.708;37.478;2024-03-23T14:21:13;13.27;;;8.38;;
49824;SDS011;35714;55.708;37.478;2024-03-23T14:23:39;11.07;;;7.82;;
49824;SDS011;35714;55.708;37.478;2024-03-23T14:26:06;12.05;;;7.57;;
49824;SDS011;35714;55.708;37.478;2024-03-23T14:28:33;13.13;;;7.70;;
49824;SDS011;35714;55.708;37.478;2024-03-23T14:31:00;12.52;;;7.28;;
49824;SDS011;35714;55.708;37.478;2024-03-23T14:33:26;10.85;;;7.47;;
49824;SDS011;35714;55.708;37.478;2024-03-23T14:35:53;11.52;;;7.15;;
49824;SDS011;35714;55.708;37.478;2024-03-23T14:38:24;13.80;;;7.75;;
49824;SDS011;35714;55.708;37.478;2024-03-23T14:40:50;12.65;;;7.78;;
49824;SDS011;35714;55.708;37.478;2024-03-23T14:43:19;12.23;;;8.15;;
49824;SDS011;35714;55.708;37.478;2024-03-23T14:48:31;11.98;;;7.68;;
49824;SDS011;35714;55.708;37.478;2024-03-23T14:50:58;10.48;;;7.03;;
49824;SDS011;35714;55.708;37.478;2024-03-23T14:53:25;11.32;;;7.03;;
49824;SDS011;35714;55.708;37.478;2024-03-23T14:55:54;11.88;;;6.70;;
49824;SDS011;35714;55.708;37.478;2024-03-23T14:58:20;13.15;;;7.70;;
49824;SDS011;35714;55.708;37.478;2024-03-23T15:00:45;12.00;;;7.35;;
49824;SDS011;35714;55.708;37.478;2024-03-23T15:03:11;11.23;;;8.02;;
49824;SDS011;35714;55.708;37.478;2024-03-23T15:05:37;12.45;;;7.90;;
49824;SDS011;35714;55.708;37.478;2024-03-23T15:08:03;11.13;;;6.68;;
49824;SDS011;35714;55.708;37.478;2024-03-23T15:10:29;11.45;;;7.15;;
49824;SDS011;35714;55.708;37.478;2024-03-23T15:12:54;10.93;;;7.07;;
49824;SDS011;35714;55.708;37.478;2024-03-23T15:15:20;11.40;;;6.93;;
49824;SDS011;35714;55.708;37.478;2024-03-23T15:17:46;12.18;;;7.10;;
49824;SDS011;35714;55.708;37.478;2024-03-23T15:20:11;11.88;;;7.57;;
49824;SDS011;35714;55.708;37.478;2024-03-23T15:22:38;12.60;;;6.68;;
49824;SDS011;35714;55.708;37.478;2024-03-23T15:25:03;11.40;;;7.15;;
49824;SDS011;35714;55.708;37.478;2024-03-23T15:27:29;11.05;;;6.47;;
49824;SDS011;35714;55.708;37.478;2024-03-23T15:29:58;10.68;;;6.82;;
49824;SDS011;35714;55.708;37.478;2024-03-23T15:32:23;10.60;;;7.07;;
49824;SDS011;35714;55.708;37.478;2024-03-23T15:34:49;10.93;;;6.95;;
49824;SDS011;35714;55.708;37.478;2024-03-23T15:37:15;11.57;;;6.75;;